sensor_id;sensor_type;location;lat;lon;timestamp;P1;durP1;ratioP1;P2;durP2;ratioP2
60426;SDS011;46274;47.168;27.604;2024-01-15T00:01:02;6.10;;;2.57;;
60426;SDS011;46274;47.168;27.604;2024-01-15T00:07:26;6.40;;;2.80;;
60426;SDS011;46274;47.168;27.604;2024-01-15T00:13:32;7.90;;;3.17;;
60426;SDS011;46274;47.168;27.604;2024-01-15T00:19:44;5.00;;;2.40;;
60426;SDS011;46274;47.168;27.604;2024-01-15T00:25:56;5.07;;;2.73;;
60426;SDS011;46274;47.168;27.604;2024-01-15T00:32:11;5.33;;;2.33;;
60426;SDS011;46274;47.168;27.604;2024-01-15T00:38:30;6.10;;;2.60;;
60426;SDS011;46274;47.168;27.604;2024-01-15T00:44:36;4.37;;;2.23;;
60426;SDS011;46274;47.168;27.604;2024-01-15T00:50:59;8.97;;;4.10;;
60426;SDS011;46274;47.168;27.604;2024-01-15T00:57:08;12.73;;;5.30;;
60426;SDS011;46274;47.168;27.604;2024-01-15T01:03:23;10.20;;;4.30;;
60426;SDS011;46274;47.168;27.604;2024-01-15T01:09:31;9.43;;;4.47;;
60426;SDS011;46274;47.168;27.604;2024-01-15T01:15:36;13.47;;;5.30;;
60426;SDS011;46274;47.168;27.604;2024-01-15T01:21:45;10.00;;;4.77;;
60426;SDS011;46274;47.168;27.604;2024-01-15T01:27:56;8.10;;;3.30;;
60426;SDS011;46274;47.168;27.604;2024-01-15T01:34:03;8.40;;;3.87;;
60426;SDS011;46274;47.168;27.604;2024-01-15T01:40:06;12.67;;;4.30;;
60426;SDS011;46274;47.168;27.604;2024-01-15T01:46:14;11.50;;;5.00;;
60426;SDS011;46274;47.168;27.604;2024-01-15T01:52:17;12.87;;;5.23;;
60426;SDS011;46274;47.168;27.604;2024-01-15T01:58:21;9.40;;;4.57;;
60426;SDS011;46274;47.168;27.604;2024-01-15T02:04:27;9.10;;;3.43;;
60426;SDS011;46274;47.168;27.604;2024-01-15T02:10:33;8.40;;;3.20;;
60426;SDS011;46274;47.168;27.604;2024-01-15T02:16:36;9.90;;;3.70;;
60426;SDS011;46274;47.168;27.604;2024-01-15T02:22:38;6.53;;;2.90;;
60426;SDS011;46274;47.168;27.604;2024-01-15T02:28:42;8.77;;;3.93;;
60426;SDS011;46274;47.168;27.604;2024-01-15T02:34:49;8.03;;;3.03;;
60426;SDS011;46274;47.168;27.604;2024-01-15T02:40:52;8.00;;;3.47;;
60426;SDS011;46274;47.168;27.604;2024-01-15T02:46:56;8.77;;;3.47;;
60426;SDS011;46274;47.168;27.604;2024-01-15T02:52:58;7.13;;;2.60;;
60426;SDS011;46274;47.168;27.604;2024-01-15T02:59:01;7.80;;;3.43;;
60426;SDS011;46274;47.168;27.604;2024-01-15T03:05:06;7.10;;;2.97;;
60426;SDS011;46274;47.168;27.604;2024-01-15T03:11:09;9.17;;;3.50;;
60426;SDS011;46274;47.168;27.604;2024-01-15T03:17:11;7.50;;;3.17;;
60426;SDS011;46274;47.168;27.604;2024-01-15T03:23:15;6.50;;;2.90;;
60426;SDS011;46274;47.168;27.604;2024-01-15T03:29:17;8.23;;;3.20;;
60426;SDS011;46274;47.168;27.604;2024-01-15T03:35:28;6.93;;;2.40;;
60426;SDS011;46274;47.168;27.604;2024-01-15T03:41:40;7.60;;;3.20;;
60426;SDS011;46274;47.168;27.604;2024-01-15T03:47:43;7.70;;;3.00;;
60426;SDS011;46274;47.168;27.604;2024-01-15T03:53:45;11.97;;;5.13;;
60426;SDS011;46274;47.168;27.604;2024-01-15T03:59:50;20.53;;;8.57;;
60426;SDS011;46274;47.168;27.604;2024-01-15T04:05:53;11.13;;;4.90;;
60426;SDS011;46274;47.168;27.604;2024-01-15T04:12:00;7.53;;;3.60;;
60426;SDS011;46274;47.168;27.604;2024-01-15T04:18:15;9.87;;;4.23;;
60426;SDS011;46274;47.168;27.604;2024-01-15T04:24:21;15.23;;;5.30;;
60426;SDS011;46274;47.168;27.604;2024-01-15T04:30:45;13.93;;;4.87;;
60426;SDS011;46274;47.168;27.604;2024-01-15T04:36:52;10.77;;;4.47;;
60426;SDS011;46274;47.168;27.604;2024-01-15T04:42:56;13.73;;;5.70;;
60426;SDS011;46274;47.168;27.604;2024-01-15T04:49:00;16.27;;;7.27;;
60426;SDS011;46274;47.168;27.604;2024-01-15T04:55:04;21.50;;;9.20;;
60426;SDS011;46274;47.168;27.604;2024-01-15T05:01:07;24.07;;;8.53;;
60426;SDS011;46274;47.168;27.604;2024-01-15T05:07:20;16.17;;;7.27;;
60426;SDS011;46274;47.168;27.604;2024-01-15T05:13:26;14.67;;;6.93;;
60426;SDS011;46274;47.168;27.604;2024-01-15T05:19:29;13.33;;;5.50;;
60426;SDS011;46274;47.168;27.604;2024-01-15T05:25:33;15.17;;;5.63;;
60426;SDS011;46274;47.168;27.604;2024-01-15T05:31:37;11.80;;;5.30;;
60426;SDS011;46274;47.168;27.604;2024-01-15T05:37:43;33.53;;;13.73;;
60426;SDS011;46274;47.168;27.604;2024-01-15T05:43:50;14.27;;;5.83;;
60426;SDS011;46274;47.168;27.604;2024-01-15T05:49:54;17.43;;;6.37;;
60426;SDS011;46274;47.168;27.604;2024-01-15T05:55:59;40.73;;;16.07;;
60426;SDS011;46274;47.168;27.604;2024-01-15T06:02:08;20.53;;;7.30;;
60426;SDS011;46274;47.168;27.604;2024-01-15T06:08:18;71.57;;;31.90;;
60426;SDS011;46274;47.168;27.604;2024-01-15T06:14:25;31.03;;;12.23;;
60426;SDS011;46274;47.168;27.604;2024-01-15T06:20:29;28.87;;;9.87;;
60426;SDS011;46274;47.168;27.604;2024-01-15T06:26:31;24.20;;;8.77;;
60426;SDS011;46274;47.168;27.604;2024-01-15T06:32:37;26.00;;;9.40;;
60426;SDS011;46274;47.168;27.604;2024-01-15T06:38:40;27.83;;;10.90;;
60426;SDS011;46274;47.168;27.604;2024-01-15T06:44:46;34.73;;;11.20;;
60426;SDS011;46274;47.168;27.604;2024-01-15T06:50:54;26.23;;;10.97;;
60426;SDS011;46274;47.168;27.604;2024-01-15T06:57:00;25.57;;;9.30;;
60426;SDS011;46274;47.168;27.604;2024-01-15T07:03:04;28.80;;;10.50;;
60426;SDS011;46274;47.168;27.604;2024-01-15T07:09:07;28.57;;;10.13;;
60426;SDS011;46274;47.168;27.604;2024-01-15T07:15:17;24.67;;;9.50;;
60426;SDS011;46274;47.168;27.604;2024-01-15T07:21:25;36.97;;;15.17;;
60426;SDS011;46274;47.168;27.604;2024-01-15T07:27:33;48.97;;;18.60;;
60426;SDS011;46274;47.168;27.604;2024-01-15T07:33:43;45.33;;;13.87;;
60426;SDS011;46274;47.168;27.604;2024-01-15T07:39:50;34.07;;;12.03;;
60426;SDS011;46274;47.168;27.604;2024-01-15T07:46:00;41.63;;;14.80;;
60426;SDS011;46274;47.168;27.604;2024-01-15T07:52:06;43.47;;;16.60;;
60426;SDS011;46274;47.168;27.604;2024-01-15T07:58:09;44.20;;;15.23;;
60426;SDS011;46274;47.168;27.604;2024-01-15T08:04:19;60.40;;;21.77;;
60426;SDS011;46274;47.168;27.604;2024-01-15T08:10:29;39.33;;;19.17;;
60426;SDS011;46274;47.168;27.604;2024-01-15T08:16:34;26.30;;;10.57;;
60426;SDS011;46274;47.168;27.604;2024-01-15T08:22:41;29.30;;;11.07;;
60426;SDS011;46274;47.168;27.604;2024-01-15T08:28:45;28.00;;;10.97;;
60426;SDS011;46274;47.168;27.604;2024-01-15T08:35:18;34.67;;;11.87;;
60426;SDS011;46274;47.168;27.604;2024-01-15T08:41:36;33.17;;;11.90;;
60426;SDS011;46274;47.168;27.604;2024-01-15T08:47:53;46.10;;;15.17;;
60426;SDS011;46274;47.168;27.604;2024-01-15T08:53:56;29.63;;;10.53;;
60426;SDS011;46274;47.168;27.604;2024-01-15T09:00:04;28.47;;;11.20;;
60426;SDS011;46274;47.168;27.604;2024-01-15T09:06:13;45.93;;;15.83;;
60426;SDS011;46274;47.168;27.604;2024-01-15T09:18:58;63.10;;;19.83;;
60426;SDS011;46274;47.168;27.604;2024-01-15T09:32:52;27.67;;;11.77;;
60426;SDS011;46274;47.168;27.604;2024-01-15T09:40:02;20.40;;;8.73;;
60426;SDS011;46274;47.168;27.604;2024-01-15T09:54:09;25.53;;;10.63;;
60426;SDS011;46274;47.168;27.604;2024-01-15T10:29:52;40.20;;;14.40;;
60426;SDS011;46274;47.168;27.604;2024-01-15T11:27:09;12.57;;;6.50;;
60426;SDS011;46274;47.168;27.604;2024-01-15T11:34:14;13.27;;;6.43;;
60426;SDS011;46274;47.168;27.604;2024-01-15T11:48:12;13.97;;;6.73;;
60426;SDS011;46274;47.168;27.604;2024-01-15T12:09:57;17.43;;;6.40;;
60426;SDS011;46274;47.168;27.604;2024-01-15T12:17:11;13.20;;;6.37;;
60426;SDS011;46274;47.168;27.604;2024-01-15T12:23:37;11.17;;;5.73;;
60426;SDS011;46274;47.168;27.604;2024-01-15T12:37:18;17.37;;;6.60;;
60426;SDS011;46274;47.168;27.604;2024-01-15T12:44:02;12.87;;;6.17;;
60426;SDS011;46274;47.168;27.604;2024-01-15T13:12:42;16.07;;;6.77;;
60426;SDS011;46274;47.168;27.604;2024-01-15T13:19:07;15.33;;;6.83;;
60426;SDS011;46274;47.168;27.604;2024-01-15T13:40:24;17.77;;;9.00;;
60426;SDS011;46274;47.168;27.604;2024-01-15T15:03:03;32.10;;;15.93;;
60426;SDS011;46274;47.168;27.604;2024-01-15T15:09:47;30.77;;;14.80;;
60426;SDS011;46274;47.168;27.604;2024-01-15T15:24:15;43.70;;;17.97;;
60426;SDS011;46274;47.168;27.604;2024-01-15T17:58:32;10.20;;;5.87;;
